Latest Weather Observations for Burketown Airport

IDQ60801

Issued at 10:32 pm EST Monday 27 March 2017 (issued every 30 minutes, with the page automatically refreshed every 10 minutes)

About weather observations | Map of weather stations | Latest weather observations for QLD | Other Formats
Station Details ID: 029077 Name: BURKETOWN AIRPORT Lat: -17.75 Lon: 139.54 Height: 5.7 m
Data from the previous 72 hours. | See also: Recent months at Burketown Airport
Date/Time
EST
Temp
°C
App
Temp
°C
Dew
Point
°C
Rel
Hum
%
Delta-T
°C
Wind Press
QNH
hPa
Press
MSL
hPa
Rain since
9am
mm
Dir  Spd
km/h
Gust
km/h
Spd
kts
Gust
kts
27/10:30pm 27.8 34.8 27.8 100 0.0 NNW 7 9 4 5 1006.6 - 0.0
27/10:00pm 28.1 34.4 27.9 99 0.1 NW 11 13 6 7 1006.1 - 0.0
27/09:30pm 28.3 34.6 27.4 95 0.6 NW 9 11 5 6 1005.8 - 0.0
27/09:00pm 29.0 34.6 27.9 94 0.8 NW 15 19 8 10 1005.5 1005.4 0.0
27/08:30pm 29.2 34.8 27.4 90 1.3 NNW 13 15 7 8 1005.4 - 0.0
27/08:00pm 29.7 34.9 26.3 82 2.4 NNW 11 13 6 7 1005.3 - 0.0
27/07:30pm 30.9 35.2 25.5 73 3.8 N 13 15 7 8 1005.1 - 0.0
27/07:00pm 32.3 36.0 25.1 65 5.1 N 15 20 8 11 1005.1 - 0.0
27/06:30pm 33.9 35.9 23.6 55 7.2 N 19 24 10 13 1004.8 - 0.0
27/06:00pm 37.0 38.3 18.5 33 12.2 ESE 9 13 5 7 1004.5 1004.4 0.0
27/05:30pm 37.6 39.0 19.5 34 12.1 SE 11 13 6 7 1004.3 - 0.0
27/05:00pm 37.9 38.6 18.8 32 12.6 SE 13 17 7 9 1004.3 - 0.0
27/04:30pm 38.1 38.3 18.5 31 12.9 SSE 15 22 8 12 1004.3 - 0.0
27/04:00pm 38.5 39.0 18.3 30 13.3 SSE 13 24 7 13 1004.2 - 0.0
27/03:30pm 38.7 40.1 19.5 32 12.8 SE 11 19 6 10 1004.4 - 0.0
27/03:00pm 37.7 38.9 19.1 33 12.4 S 11 19 6 10 1004.8 1004.7 0.0
27/02:30pm 38.3 39.6 19.2 32 12.7 SSE 11 17 6 9 1005.1 - 0.0
27/02:00pm 37.5 38.3 19.9 35 11.8 S 15 20 8 11 1005.5 - 0.0
27/01:30pm 37.7 38.4 20.5 36 11.6 SSE 17 26 9 14 1006.1 - 0.0
27/01:00pm 37.4 38.2 19.8 35 11.8 SSW 15 24 8 13 1006.6 - 0.0
27/12:30pm 36.8 39.4 23.3 46 9.4 SW 15 26 8 14 1007.3 - 0.0
27/12:00pm 36.1 38.8 24.7 52 8.1 WSW 19 32 10 17 1007.9 1007.8 0.0
27/11:30am 35.7 38.3 24.0 51 8.2 SW 17 24 9 13 1008.3 - 0.0
27/11:00am 35.2 38.3 24.8 55 7.4 SW 17 24 9 13 1008.9 - 0.0
27/10:30am 34.7 37.3 24.6 55 7.1 WSW 19 28 10 15 1009.1 - 0.0
27/10:00am 34.2 36.4 24.2 56 7.0 WSW 20 26 11 14 1009.4 - 0.0
27/09:30am 33.1 35.1 24.0 59 6.4 WSW 20 26 11 14 1009.4 - 0.0
27/09:00am 31.7 35.0 25.1 68 4.7 WSW 17 20 9 11 1009.3 1009.2 0.2
27/08:30am 29.9 35.0 26.7 83 2.3 WSW 13 17 7 9 1009.2 - 0.2
27/08:00am 27.9 34.2 27.9 100 0.0 WSW 11 13 6 7 1009.2 - 0.2
27/07:30am 26.6 - 26.8 - - WSW 7 11 4 6 1009.1 - 0.2
27/07:00am 25.8 - 26.0 - - WSW 7 9 4 5 1008.9 - 0.2
27/06:30am 25.8 - 26.0 - - WSW 9 11 5 6 1008.7 - 0.2
27/06:00am 25.9 - 26.1 - - WSW 7 9 4 5 1008.6 1008.5 0.2
27/05:30am 26.1 - 26.3 - - SW 11 13 6 7 1008.5 - 0.2
27/05:00am 25.9 - 26.1 - - W 7 9 4 5 1008.2 - 0.2
27/04:30am 26.0 - 26.2 - - WNW 9 11 5 6 1008.0 - 0.2
27/04:00am 26.1 - 26.3 - - NW 9 11 5 6 1008.0 - 0.2
27/03:30am 26.2 - 26.4 - - WNW 9 11 5 6 1008.1 - 0.2
27/03:00am 26.2 - 26.4 - - WNW 7 9 4 5 1008.1 1008.0 0.2
27/02:30am 26.3 31.9 26.3 100 0.0 WNW 9 9 5 5 1008.1 - 0.2
27/02:00am 26.5 32.2 26.5 100 0.0 WNW 9 11 5 6 1008.2 - 0.2
27/01:30am 26.6 32.4 26.6 100 0.0 NW 9 9 5 5 1008.5 - 0.2
27/01:00am 26.7 32.9 26.7 100 0.0 NNW 7 9 4 5 1008.8 - 0.2
27/12:30am 26.8 33.1 26.8 100 0.0 NW 7 9 4 5 1008.9 - 0.2
27/12:00am 27.0 33.1 27.0 100 0.0 NW 9 11 5 6 1009.1 1009.0 0.2
 
Date/Time
EST
Temp
°C
App
Temp
°C
Dew
Point
°C
Rel
Hum
%
Delta-T
°C
Wind Press
QNH
hPa
Press
MSL
hPa
Rain since
9am
mm
Dir  Spd
km/h
Gust
km/h
Spd
kts
Gust
kts
26/11:30pm 27.4 32.7 26.5 95 0.6 NW 11 13 6 7 1009.0 - 0.2
26/11:00pm 27.9 33.1 26.8 94 0.8 NW 13 15 7 8 1009.0 - 0.2
26/10:30pm 28.1 34.1 27.4 96 0.5 NNW 11 15 6 8 1008.7 - 0.2
26/10:00pm 28.5 34.2 27.1 92 1.0 N 11 15 6 8 1008.6 - 0.2
26/09:30pm 28.6 34.0 27.2 92 1.0 N 13 15 7 8 1008.4 - 0.2
26/09:00pm 28.7 34.3 26.9 90 1.3 NNW 11 15 6 8 1008.0 1007.9 0.2
26/08:30pm 28.9 33.9 26.5 87 1.7 NNW 13 15 7 8 1007.6 - 0.2
26/08:00pm 29.2 34.2 26.6 86 1.9 NNW 13 15 7 8 1007.3 - 0.2
26/07:30pm 29.8 34.4 26.0 80 2.7 NNW 13 17 7 9 1007.0 - 0.2
26/07:00pm 30.1 34.0 25.4 76 3.3 NNW 15 17 8 9 1006.7 - 0.2
26/06:30pm 31.4 35.2 25.3 70 4.3 NNW 15 20 8 11 1006.3 - 0.2
26/06:00pm 32.3 34.6 24.1 62 5.7 N 19 26 10 14 1006.1 1006.0 0.2
26/05:30pm 33.2 35.3 24.1 59 6.4 N 20 26 11 14 1005.8 - 0.2
26/05:00pm 33.9 36.1 24.2 57 6.8 N 20 30 11 16 1005.5 - 0.2
26/04:30pm 34.4 37.0 24.0 54 7.3 N 17 22 9 12 1005.4 - 0.2
26/04:00pm 34.5 36.8 24.1 54 7.3 N 19 26 10 14 1005.6 - 0.2
26/03:30pm 34.0 35.7 24.6 58 6.6 NNW 24 32 13 17 1005.8 - 0.2
26/03:00pm 35.0 39.5 25.2 57 7.0 N 11 17 6 9 1006.2 1006.1 0.2
26/02:30pm 34.6 39.2 24.8 56 6.9 NW 9 17 5 9 1006.7 - 0.2
26/02:00pm 34.6 38.5 24.2 54 7.3 NNW 11 17 6 9 1007.1 - 0.2
26/01:30pm 34.3 38.5 24.8 57 6.7 NNW 11 19 6 10 1007.6 - 0.2
26/01:00pm 34.9 38.0 23.6 52 7.9 NE 13 17 7 9 1008.1 - 0.2
26/12:30pm 33.5 37.3 24.1 58 6.6 NNE 11 17 6 9 1008.7 - 0.2
26/12:00pm 34.5 38.5 24.4 55 7.1 N 11 19 6 10 1009.2 1009.1 0.2
26/11:30am 33.7 38.9 24.8 59 6.3 NNE 6 13 3 7 1009.5 - 0.2
26/11:00am 33.5 38.3 24.1 58 6.6 NNE 6 11 3 6 1009.9 - 0.2
26/10:30am 33.0 37.8 24.5 61 6.0 WSW 7 11 4 6 1010.2 - 0.2
26/10:00am 32.0 37.1 25.6 69 4.5 SW 9 15 5 8 1010.4 - 0.2
26/09:30am 31.0 36.6 26.3 76 3.4 SW 9 15 5 8 1010.5 - 0.0
26/09:00am 29.8 36.8 27.8 89 1.5 S 7 9 4 5 1010.4 1010.3 18.8
26/08:30am 28.8 36.2 28.8 100 0.0 S 9 11 5 6 1010.0 - 18.8
26/08:00am 27.5 - 27.7 - - W 4 7 2 4 1009.6 - 18.8
26/07:30am 26.4 - 26.7 - - CALM 0 7 0 4 1009.1 - 18.8
26/07:00am 25.5 - 25.8 - - CALM 0 0 0 0 1008.8 - 18.8
26/06:30am 25.5 - 25.8 - - SE 6 6 3 3 1008.4 - 18.8
26/06:00am 25.5 - 25.8 - - S 7 7 4 4 1007.9 1007.8 18.8
26/05:30am 25.5 - 25.8 - - SSW 7 11 4 6 1007.6 - 18.8
26/05:00am 25.5 - 25.8 - - WSW 7 7 4 4 1007.4 - 18.8
26/04:30am 25.6 - 25.9 - - NW 7 11 4 6 1007.3 - 18.8
26/04:00am 25.7 - 26.0 - - WNW 7 9 4 5 1007.3 - 18.8
26/03:30am 25.9 - 26.2 - - WNW 9 11 5 6 1007.5 - 18.8
26/03:00am 26.0 - 26.3 - - WNW 9 11 5 6 1007.8 1007.7 18.8
26/02:30am 26.2 - 26.5 - - WNW 11 13 6 7 1008.0 - 18.8
26/02:00am 26.2 - 26.5 - - W 7 9 4 5 1008.2 - 18.8
26/01:30am 26.1 - 26.4 - - W 9 11 5 6 1008.4 - 18.8
26/01:00am 26.4 - 26.6 - - W 6 7 3 4 1008.6 - 18.8
26/12:30am 26.4 - 26.6 - - W 7 7 4 4 1008.8 - 18.8
26/12:00am 26.7 - 26.9 - - NW 9 9 5 5 1009.3 1009.2 18.8
 
Date/Time
EST
Temp
°C
App
Temp
°C
Dew
Point
°C
Rel
Hum
%
Delta-T
°C
Wind Press
QNH
hPa
Press
MSL
hPa
Rain since
9am
mm
Dir  Spd
km/h
Gust
km/h
Spd
kts
Gust
kts
25/11:30pm 26.6 - 26.8 - - NW 7 9 4 5 1009.4 - 18.8
25/11:00pm 26.7 - 26.9 - - NW 9 9 5 5 1009.4 - 18.8
25/10:30pm 26.8 - 27.0 - - NNW 9 9 5 5 1008.9 - 18.8
25/10:00pm 27.1 34.9 27.1 100 0.0 CALM 0 0 0 0 1008.6 - 18.8
25/09:30pm 27.1 34.9 27.1 100 0.0 CALM 0 0 0 0 1008.4 - 18.8
25/09:00pm 27.3 35.1 27.1 99 0.1 CALM 0 0 0 0 1007.8 1007.7 18.8
25/08:30pm 27.6 35.2 26.7 95 0.6 CALM 0 0 0 0 1007.4 - 18.8
25/08:00pm 27.6 34.7 26.0 91 1.1 CALM 0 0 0 0 1007.0 - 18.8
25/07:30pm 27.6 34.7 26.0 91 1.1 CALM 0 0 0 0 1006.8 - 18.8
25/07:00pm 27.6 33.7 26.2 92 1.0 WSW 6 7 3 4 1006.7 - 18.8
25/06:30pm 28.1 33.7 25.7 87 1.7 WNW 7 7 4 4 1006.6 - 18.8
25/06:00pm 28.4 33.5 25.6 85 2.0 NW 9 15 5 8 1006.4 1006.3 18.8
25/05:30pm 28.9 34.5 25.5 82 2.4 WNW 6 9 3 5 1006.2 - 18.8
25/05:00pm 29.0 34.4 25.4 81 2.5 W 7 13 4 7 1006.1 - 18.8
25/04:30pm 28.8 32.9 24.6 78 2.9 W 11 15 6 8 1005.9 - 18.8
25/04:00pm 30.0 35.4 25.1 75 3.4 ESE 6 11 3 6 1006.2 - 18.8
25/03:30pm 29.7 34.6 24.6 74 3.6 NNE 7 9 4 5 1006.4 - 18.8
25/03:00pm 28.6 33.3 25.0 81 2.5 ENE 9 13 5 7 1006.4 1006.3 18.8
25/02:30pm 28.1 33.0 25.3 85 2.0 NE 9 13 5 7 1007.0 - 18.8
25/02:00pm 26.9 31.2 25.5 92 1.0 N 13 19 7 10 1007.2 - 18.8
25/01:30pm 26.4 31.8 25.4 94 0.7 NNE 7 11 4 6 1008.1 - 18.8
25/01:00pm 26.5 30.9 26.3 99 0.1 NE 15 19 8 10 1008.6 - 18.8
25/12:30pm 25.3 27.7 24.3 94 0.7 N 19 24 10 13 1008.9 - 18.4
25/12:06pm 27.3 27.8 24.0 82 2.3 E 28 46 15 25 1008.8 - 1.6
25/12:00pm 29.9 33.6 25.2 76 3.3 NE 15 30 8 16 1008.5 1008.4 0.0
25/11:30am 33.4 38.3 24.3 59 6.4 ENE 6 13 3 7 1008.8 - 0.0
25/11:00am 33.7 38.7 24.8 59 6.3 NNE 7 13 4 7 1009.2 - 0.0
25/10:30am 34.2 38.6 24.5 57 6.8 ENE 9 15 5 8 1009.3 - 0.0
25/10:00am 32.9 37.6 24.9 63 5.6 ENE 9 13 5 7 1009.5 - 0.0
25/09:30am 32.3 37.2 24.6 64 5.4 E 7 13 4 7 1009.6 - 0.0
25/09:00am 30.6 34.7 24.0 68 4.6 SSE 9 11 5 6 1009.3 1009.2 0.0
25/08:30am 29.8 34.3 24.0 71 4.0 SSE 7 9 4 5 1009.0 - 0.0
25/08:00am 27.5 33.0 25.3 88 1.5 SSW 6 7 3 4 1008.6 - 0.0
25/07:30am 26.6 32.0 25.2 92 1.0 SE 6 7 3 4 1008.2 - 0.0
25/07:00am 26.1 31.0 24.7 92 1.0 SE 7 9 4 5 1007.9 - 0.0
25/06:30am 26.1 31.9 24.5 91 1.1 NW 2 9 1 5 1007.6 - 0.0
25/06:00am 26.3 32.4 24.5 90 1.2 CALM 0 0 0 0 1007.2 1007.1 0.0
25/05:30am 26.2 32.2 24.2 89 1.4 CALM 0 0 0 0 1006.6 - 0.0
25/05:00am 25.8 30.2 23.8 89 1.4 NW 7 11 4 6 1006.3 - 0.0
25/04:30am 26.1 30.1 23.8 87 1.6 NW 9 13 5 7 1006.1 - 0.0
25/04:00am 26.6 30.5 24.3 87 1.6 NNW 11 13 6 7 1006.3 - 0.0
25/03:30am 26.7 31.5 24.4 87 1.6 N 7 9 4 5 1006.5 - 0.0
25/03:00am 26.4 30.5 23.9 86 1.7 N 9 11 5 6 1006.4 1006.3 0.0
25/02:30am 26.7 30.9 23.2 81 2.4 NNW 6 7 3 4 1006.4 - 0.0
25/02:00am 26.8 30.4 23.1 80 2.5 N 9 11 5 6 1006.7 - 0.0
25/01:30am 27.3 30.5 23.1 78 2.9 N 11 13 6 7 1007.1 - 0.0
25/01:00am 27.8 31.7 24.2 81 2.5 NE 11 13 6 7 1007.2 - 0.0
25/12:30am 27.8 32.7 25.2 86 1.8 N 9 9 5 5 1007.3 - 0.0
25/12:00am 28.2 33.1 25.8 87 1.7 NNW 11 13 6 7 1007.1 1007.0 0.0
 
Date/Time
EST
Temp
°C
App
Temp
°C
Dew
Point
°C
Rel
Hum
%
Delta-T
°C
Wind Press
QNH
hPa
Press
MSL
hPa
Rain since
9am
mm
Dir  Spd
km/h
Gust
km/h
Spd
kts
Gust
kts
24/11:30pm 29.1 34.3 25.7 82 2.4 NNE 9 11 5 6 1007.1 - 0.0
24/11:00pm 29.7 34.1 25.7 79 2.8 N 13 15 7 8 1007.2 - 0.0

Other Formats:

Comma delimited format used in spreadsheet applications
http://www.bom.gov.au/fwo/IDQ60801/IDQ60801.94260.axf

JavaScript Object Notation format (JSON) in row-major order
http://www.bom.gov.au/fwo/IDQ60801/IDQ60801.94260.json